KLUL

Hesler-Noble Field Airport

Laurel, Mississippi, USA
METAR KLUL 151915Z AUTO 35006KT 10SM SCT120 07/M02 A3023 RMK AO2 T00661018
Observed Flight Rules
Dec-15 @ 19:15 UTC (29 minutes ago) Visual Flight Rules
Wind Visibility Clouds
350° at 6 knots 10 miles
  • Scattered at 12,000' AGL
Temperatures Readings
Current 7°C / 45°F
Dewpoint -2°C / 28°F
Humidity 53%
Altimeter 30.23" Hg
Pressure 1024 hPa
Elevation 73
METAR KLUL 151915Z AUTO 35006KT 10SM SCT120 07/M02 A3023 RMK AO2 T00661018
Observed Flight Rules
Dec-15 @ 19:15 UTC
(29 minutes ago)
VFR
Wind Visibility
350° at 6 knots 10 miles
Clouds
  • Scattered at 12,000' AGL
Temperature Dewpoint
7°C / 45°F -2°C / 28°F
Humidity Altimeter Pressure
53% 30.23" Hg 1024 hPa